HESC

Details ICAO HESC (SKV)
Name ST CATHERINE INTL
Region Egypt
Timezone Africa/Cairo (UTC+2.0)
Plans Departing 4
Arriving 7
Stats Elevation 4,368 ft / 1,331 m (AMSL)
Location 28.685166° 34.062635°
Runways 1
Magnetic Variation 4.377° E
Sunrise 2018-05-23 02:50:26 UTC / 2018-05-23 04:50:26 Local
Sunset 2018-05-23 16:33:24 UTC / 2018-05-23 18:33:24 Local
Advertisement - Login to hide

Runways

ID Width Length Bearing (true) Bearing (mag) Surface Threshold Offset Overrun Length
17 118 ft / 36 m 6,961 ft / 2,122 m 171.54° 167.16° Asphalt 0 ft / 0 m 210 ft / 64 m
35 118 ft / 36 m 6,961 ft / 2,122 m 351.55° 347.17° Asphalt 0 ft / 0 m 210 ft / 64 m

Map

Weather


0- 5 10 15 20 25 30 35+ Temperature / ° C

Clouds and Precipitation
Forecast for 2018-05-23 18:00 UTC. Updated 2 hours ago

Ground ~20,000 ft ~40,000 ft Winds

METAR

HESC 231800Z 35007KT CAVOK 38/02 Q1025 NOSIG

TAF

Not found

Frequencies

Tower 121.90 MHz TWR
Tower 122.80 MHz TWR
Warning: Do not use this data for real-world aviation or navigation. No guarantee of current accuracy is given.